Freedom, Oklahoma
Current Conditions -  °F | °C
As of 4:55 PM on Thursday 18 Dec 2014 (Local Time) from KAVK Reporting Station
Overcast Overcast  
Wind Chill:   Ceiling: 1200
Heat Index:   Visibility: 10mi
Dew Point:   Wind: 7mph
Humidity: 93%   Direction: 30°NNE
Pressure: 30.17"   Gusts: NA
Location:  36.77°N, 99.11°W
Report Text: KAVK 182255Z AUTO 03006KT 10SM OVC012 03/02 A3017 RMK AO2
Loading
Personal Weather Stations






























Interactive Weather Map New forecast layout! Learn more

10-Day Weather Forecast

Advertisements
Track Severe Weather on mobile